createdAt,value
2019-04-03T00:00:35.855Z,14.60
2019-04-03T00:03:07.205Z,16.45
2019-04-03T00:05:38.495Z,17.23
2019-04-03T00:08:10.267Z,16.48
2019-04-03T00:10:41.625Z,16.23
2019-04-03T00:13:13.068Z,15.08
2019-04-03T00:15:44.798Z,14.85
2019-04-03T00:18:16.842Z,14.58
2019-04-03T00:20:49.211Z,12.15
2019-04-03T00:23:22.357Z,12.55
2019-04-03T00:25:54.251Z,10.15
2019-04-03T00:28:25.646Z,9.40
2019-04-03T00:30:57.115Z,8.88
2019-04-03T00:33:28.509Z,8.93
2019-04-03T00:36:00.021Z,9.03
2019-04-03T00:38:31.576Z,7.72
2019-04-03T00:41:02.983Z,9.00
2019-04-03T00:43:34.433Z,9.55
2019-04-03T00:46:06.240Z,9.13
2019-04-03T00:48:37.638Z,8.45
2019-04-03T00:51:09.167Z,8.63
2019-04-03T00:53:40.677Z,8.63
2019-04-03T00:56:12.161Z,8.68
2019-04-03T00:58:44.644Z,8.80
2019-04-03T01:01:16.176Z,9.50
2019-04-03T01:03:47.622Z,10.35
2019-04-03T01:06:19.374Z,10.00
2019-04-03T01:08:50.843Z,9.53
2019-04-03T01:11:22.451Z,9.38
2019-04-03T01:13:54.040Z,7.75
2019-04-03T01:16:25.480Z,8.00
2019-04-03T01:18:56.942Z,8.63
2019-04-03T01:21:28.380Z,9.35
2019-04-03T01:23:59.845Z,10.68
2019-04-03T01:26:31.507Z,10.75
2019-04-03T01:29:03.162Z,9.03
2019-04-03T01:31:34.637Z,9.35
2019-04-03T01:34:06.064Z,8.25
2019-04-03T01:36:37.524Z,6.15
2019-04-03T01:39:09.080Z,4.25
2019-04-03T01:41:40.632Z,6.05
2019-04-03T01:44:13.338Z,5.03
2019-04-03T01:46:44.731Z,5.33
2019-04-03T01:49:16.016Z,5.62
2019-04-03T01:51:47.533Z,6.25
2019-04-03T01:54:19.081Z,4.17
2019-04-03T01:56:50.530Z,4.75
2019-04-03T01:59:22.103Z,4.50
2019-04-03T02:01:53.572Z,4.75
2019-04-03T02:04:25.038Z,4.50
2019-04-03T02:06:57.815Z,5.03
2019-04-03T02:09:29.354Z,5.30
2019-04-03T02:12:00.986Z,5.15
2019-04-03T02:14:32.412Z,5.10
2019-04-03T02:17:03.726Z,4.97
2019-04-03T02:19:35.038Z,5.12
2019-04-03T02:22:06.429Z,5.47
2019-04-03T02:24:38.013Z,5.10
2019-04-03T02:27:09.521Z,5.12
2019-04-03T02:29:41.097Z,5.47
2019-04-03T02:32:12.683Z,5.30
2019-04-03T02:34:44.486Z,5.58
2019-04-03T02:37:16.829Z,4.67
2019-04-03T02:39:49.124Z,5.65
2019-04-03T02:42:20.696Z,5.80
2019-04-03T02:44:52.345Z,5.22
2019-04-03T02:47:24.125Z,4.65
2019-04-03T02:49:55.829Z,4.92
2019-04-03T02:52:28.138Z,6.00
2019-04-03T02:55:00.840Z,5.55
2019-04-03T02:57:32.200Z,5.62
2019-04-03T03:00:03.699Z,4.97
2019-04-03T03:02:35.365Z,5.28
2019-04-03T03:05:07.212Z,5.78
2019-04-03T03:07:38.835Z,5.72
2019-04-03T03:10:10.338Z,4.70
2019-04-03T03:12:42.501Z,5.30
2019-04-03T03:15:14.065Z,5.37
2019-04-03T03:17:46.213Z,5.33
2019-04-03T03:20:22.238Z,5.40
2019-04-03T03:22:55.472Z,5.10
2019-04-03T03:25:27.481Z,5.30
2019-04-03T03:27:59.450Z,4.80
2019-04-03T03:30:41.215Z,5.08
2019-04-03T03:33:24.238Z,5.10
2019-04-03T03:35:43.632Z,5.10
2019-04-03T03:38:12.643Z,5.53
2019-04-03T03:40:47.317Z,4.42
2019-04-03T03:43:18.738Z,5.47
2019-04-03T03:45:52.521Z,5.20
2019-04-03T03:48:25.592Z,5.20
2019-04-03T03:50:58.598Z,5.20
2019-04-03T03:53:32.375Z,5.42
2019-04-03T03:56:04.615Z,5.28
2019-04-03T03:58:37.781Z,5.45
2019-04-03T04:01:09.799Z,5.45
2019-04-03T04:03:42.337Z,5.33
2019-04-03T04:06:14.828Z,5.15
2019-04-03T04:08:46.418Z,5.35
2019-04-03T04:11:18.104Z,5.28
2019-04-03T04:13:50.428Z,6.12
2019-04-03T04:16:22.190Z,5.20
2019-04-03T04:18:57.000Z,6.03
2019-04-03T04:21:27.349Z,5.53
2019-04-03T04:23:59.984Z,6.00
2019-04-03T04:26:32.366Z,5.53
2019-04-03T04:29:04.060Z,5.20
2019-04-03T04:31:35.289Z,5.15
2019-04-03T04:34:06.950Z,5.65
2019-04-03T04:36:38.301Z,5.50
2019-04-03T04:39:10.067Z,5.83
2019-04-03T04:41:41.453Z,5.85
2019-04-03T04:44:14.832Z,5.78
2019-04-03T04:46:46.085Z,5.75
2019-04-03T04:49:17.381Z,6.05
2019-04-03T04:51:49.280Z,5.58
2019-04-03T04:54:20.656Z,6.22
2019-04-03T04:56:52.217Z,5.37
2019-04-03T04:59:23.802Z,6.28
2019-04-03T05:01:55.261Z,5.62
2019-04-03T05:04:26.832Z,5.80
2019-04-03T05:07:00.147Z,6.37
2019-04-03T05:09:34.353Z,5.20
2019-04-03T05:12:04.889Z,5.95
2019-04-03T05:14:36.703Z,7.30
2019-04-03T05:17:09.442Z,6.25
2019-04-03T05:19:41.030Z,4.97
2019-04-03T05:22:12.605Z,5.50
2019-04-03T05:24:44.221Z,5.97
2019-04-03T05:27:15.850Z,5.17
2019-04-03T05:29:47.445Z,6.20
2019-04-03T05:32:19.027Z,6.62
2019-04-03T05:34:50.563Z,6.95
2019-04-03T05:37:21.989Z,6.12
2019-04-03T05:39:55.674Z,6.92
2019-04-03T05:42:28.451Z,6.03
2019-04-03T05:45:00.071Z,6.72
2019-04-03T05:47:31.651Z,5.87
2019-04-03T05:50:03.014Z,6.20
2019-04-03T05:52:35.129Z,5.65
2019-04-03T05:55:08.042Z,5.72
2019-04-03T05:57:40.725Z,4.97
2019-04-03T06:00:12.244Z,6.00
2019-04-03T06:02:44.172Z,6.30
2019-04-03T06:05:18.634Z,6.80
2019-04-03T06:07:49.757Z,5.67
2019-04-03T06:10:21.498Z,6.25
2019-04-03T06:12:52.843Z,5.40
2019-04-03T06:15:24.405Z,6.00
2019-04-03T06:17:55.883Z,5.40
2019-04-03T06:20:27.443Z,6.70
2019-04-03T06:22:58.827Z,5.97
2019-04-03T06:25:32.701Z,6.08
2019-04-03T06:28:03.881Z,5.37
2019-04-03T06:30:35.416Z,5.62
2019-04-03T06:33:07.248Z,5.92
2019-04-03T06:35:38.887Z,5.58
2019-04-03T06:38:12.402Z,5.90
2019-04-03T06:40:43.995Z,5.87
2019-04-03T06:43:17.157Z,4.95
2019-04-03T06:45:48.820Z,5.28
2019-04-03T06:48:20.675Z,4.70
2019-04-03T06:50:52.489Z,5.30
2019-04-03T06:53:27.295Z,5.75
2019-04-03T06:55:57.081Z,5.67
2019-04-03T06:58:37.328Z,5.17
2019-04-03T07:01:02.055Z,5.17
2019-04-03T07:03:35.072Z,5.20
2019-04-03T07:06:06.653Z,4.72
2019-04-03T07:08:40.932Z,5.25
2019-04-03T07:11:22.783Z,4.37
2019-04-03T07:13:44.923Z,5.20
2019-04-03T07:16:16.700Z,4.95
2019-04-03T07:18:48.069Z,5.05
2019-04-03T07:21:22.133Z,5.40
2019-04-03T07:23:53.010Z,5.33
2019-04-03T07:26:24.651Z,5.58
2019-04-03T07:28:56.721Z,5.35
2019-04-03T07:31:28.509Z,5.50
2019-04-03T07:34:01.825Z,5.40
2019-04-03T07:36:33.254Z,5.70
2019-04-03T07:39:06.607Z,5.03
2019-04-03T07:41:41.197Z,6.30
2019-04-03T07:44:11.775Z,6.00
2019-04-03T07:46:43.649Z,5.20
2019-04-03T07:49:15.326Z,6.25
2019-04-03T07:51:47.108Z,5.55
2019-04-03T07:54:20.162Z,5.67
2019-04-03T07:56:52.123Z,5.83
2019-04-03T07:59:24.082Z,6.35
2019-04-03T08:01:55.526Z,6.43
2019-04-03T08:04:27.160Z,5.97
2019-04-03T08:06:59.076Z,5.85
2019-04-03T08:09:30.645Z,5.37
2019-04-03T08:12:04.186Z,5.83
2019-04-03T08:14:35.315Z,5.50
2019-04-03T08:17:06.591Z,5.77
2019-04-03T08:19:37.579Z,5.20
2019-04-03T08:22:09.385Z,6.53
2019-04-03T08:24:40.820Z,6.17
2019-04-03T08:27:11.922Z,5.97
2019-04-03T08:29:42.827Z,6.10
2019-04-03T08:32:16.246Z,5.37
2019-04-03T08:34:46.998Z,6.43
2019-04-03T08:37:28.388Z,6.63
2019-04-03T08:39:51.085Z,5.50
2019-04-03T08:42:22.323Z,5.70
2019-04-03T08:44:53.601Z,5.77
2019-04-03T08:47:24.811Z,5.60
2019-04-03T08:49:57.214Z,5.63
2019-04-03T08:52:29.034Z,6.27
2019-04-03T08:55:00.558Z,6.10
2019-04-03T08:57:32.618Z,5.40
2019-04-03T09:00:04.295Z,5.50
2019-04-03T09:02:35.683Z,4.33
2019-04-03T09:05:08.283Z,6.10
2019-04-03T09:07:39.574Z,9.03
2019-04-03T09:10:11.106Z,7.17
2019-04-03T09:12:42.315Z,6.23
2019-04-03T09:15:13.583Z,6.23
2019-04-03T09:17:44.907Z,6.23
2019-04-03T09:20:16.511Z,6.10
2019-04-03T09:22:48.105Z,6.20
2019-04-03T09:25:19.363Z,6.30
2019-04-03T09:27:50.767Z,5.93
2019-04-03T09:30:23.816Z,5.73
2019-04-03T09:32:54.712Z,5.87
2019-04-03T09:35:25.827Z,5.43
2019-04-03T09:37:57.085Z,6.10
2019-04-03T09:40:28.234Z,5.93
2019-04-03T09:42:59.197Z,5.70
2019-04-03T09:45:30.470Z,5.97
2019-04-03T09:48:03.215Z,5.77
2019-04-03T09:50:35.027Z,5.60
2019-04-03T09:53:06.751Z,5.90
2019-04-03T09:55:38.293Z,6.43
2019-04-03T09:58:09.720Z,5.50
2019-04-03T10:00:41.985Z,6.10
2019-04-03T10:03:14.086Z,5.97
2019-04-03T10:05:46.484Z,5.90
2019-04-03T10:08:17.434Z,6.10
2019-04-03T10:10:48.471Z,7.57
2019-04-03T10:13:19.950Z,5.83
2019-04-03T10:15:51.179Z,5.83
2019-04-03T10:18:22.622Z,6.73
2019-04-03T10:20:54.192Z,6.07
2019-04-03T10:23:28.191Z,6.70
2019-04-03T10:25:59.089Z,6.60
2019-04-03T10:28:31.295Z,6.67
2019-04-03T10:31:03.168Z,5.53
2019-04-03T10:33:34.866Z,5.57
2019-04-03T10:36:06.430Z,6.10
2019-04-03T10:38:37.673Z,5.37
2019-04-03T10:41:10.983Z,6.10
2019-04-03T10:43:42.152Z,6.93
2019-04-03T10:46:13.351Z,5.53
2019-04-03T10:48:44.764Z,5.50
2019-04-03T10:51:16.228Z,7.13
2019-04-03T10:53:48.927Z,6.20
2019-04-03T10:56:20.494Z,5.60
2019-04-03T10:58:51.724Z,5.50
2019-04-03T11:01:23.362Z,5.80
2019-04-03T11:03:54.656Z,7.77
2019-04-03T11:06:25.826Z,6.27
2019-04-03T11:08:57.052Z,5.70
2019-04-03T11:11:29.660Z,6.93
2019-04-03T11:14:03.003Z,6.40
2019-04-03T11:16:34.380Z,6.10
2019-04-03T11:19:07.265Z,5.27
2019-04-03T11:21:38.708Z,5.33
2019-04-03T11:24:10.206Z,6.93
2019-04-03T11:26:41.338Z,8.93
2019-04-03T11:29:12.797Z,10.43
2019-04-03T11:31:44.184Z,5.60
2019-04-03T11:34:18.320Z,7.77
2019-04-03T11:37:08.499Z,7.60
2019-04-03T11:39:41.964Z,8.37
2019-04-03T11:42:27.169Z,7.30
2019-04-03T11:45:11.615Z,7.37
2019-04-03T11:48:26.411Z,8.13
2019-04-03T11:50:39.448Z,4.90
2019-04-03T11:56:40.267Z,5.77
2019-04-03T11:59:40.258Z,6.03
2019-04-03T12:02:58.788Z,6.03
2019-04-03T12:06:11.181Z,5.80
2019-04-03T12:08:45.699Z,5.70
2019-04-03T12:11:17.696Z,6.10
2019-04-03T12:13:49.402Z,6.20
2019-04-03T12:16:24.033Z,5.83
2019-04-03T12:18:53.878Z,6.03
2019-04-03T12:21:25.411Z,5.80
2019-04-03T12:23:58.148Z,5.60
2019-04-03T12:26:29.896Z,4.90
2019-04-03T12:29:00.999Z,5.90
2019-04-03T12:31:32.552Z,6.17
2019-04-03T12:34:06.423Z,5.50
2019-04-03T12:36:37.163Z,6.57
2019-04-03T12:39:16.051Z,6.23
2019-04-03T12:41:47.172Z,6.57
2019-04-03T12:44:20.751Z,5.80
2019-04-03T12:46:51.663Z,5.93
2019-04-03T12:49:24.224Z,6.27
2019-04-03T12:51:55.695Z,6.63
2019-04-03T12:54:27.148Z,6.97
2019-04-03T12:57:00.293Z,6.87
2019-04-03T12:59:31.719Z,6.13
2019-04-03T13:02:03.781Z,6.80
2019-04-03T13:04:35.016Z,6.70
2019-04-03T13:07:06.733Z,6.80
2019-04-03T13:09:38.724Z,6.17
2019-04-03T13:12:10.721Z,6.87
2019-04-03T13:14:42.935Z,6.77
2019-04-03T13:17:14.786Z,8.33
2019-04-03T13:19:46.675Z,6.70
2019-04-03T13:22:18.846Z,6.30
2019-04-03T13:24:49.999Z,6.77
2019-04-03T13:27:21.372Z,6.73
2019-04-03T13:29:52.681Z,6.43
2019-04-03T13:32:24.787Z,7.10
2019-04-03T13:34:56.203Z,6.43
2019-04-03T13:37:27.660Z,6.60
2019-04-03T13:40:00.520Z,6.93
2019-04-03T13:42:32.281Z,6.60
2019-04-03T13:45:04.903Z,6.50
2019-04-03T13:47:35.988Z,6.93
2019-04-03T13:50:07.803Z,6.40
2019-04-03T13:52:43.065Z,5.17
2019-04-03T13:55:12.246Z,7.20
2019-04-03T13:57:43.859Z,7.43
2019-04-03T14:00:20.982Z,6.67
2019-04-03T14:02:48.853Z,6.90
2019-04-03T14:05:20.296Z,6.67
2019-04-03T14:07:51.498Z,5.70
2019-04-03T14:10:24.525Z,6.80
2019-04-03T14:12:55.791Z,7.07
2019-04-03T14:15:26.996Z,7.03
2019-04-03T14:17:59.627Z,7.67
2019-04-03T14:20:31.151Z,7.30
2019-04-03T14:23:03.901Z,7.50
2019-04-03T14:25:38.454Z,6.80
2019-04-03T14:28:09.697Z,7.23
2019-04-03T14:30:43.637Z,7.10
2019-04-03T14:33:14.564Z,7.57
2019-04-03T14:35:52.324Z,7.90
2019-04-03T14:38:19.084Z,7.93
2019-04-03T14:40:50.562Z,8.47
2019-04-03T14:43:22.384Z,7.57
2019-04-03T14:45:53.965Z,7.80
2019-04-03T14:48:26.312Z,8.07
2019-04-03T14:50:58.692Z,8.67
2019-04-03T14:53:30.154Z,6.43
2019-04-03T14:56:02.043Z,8.47
2019-04-03T14:58:33.119Z,7.93
2019-04-03T15:01:04.409Z,8.40
2019-04-03T15:03:35.607Z,8.13
2019-04-03T15:06:06.947Z,7.90
2019-04-03T15:08:38.339Z,7.50
2019-04-03T15:11:10.002Z,8.00
2019-04-03T15:13:41.295Z,7.97
2019-04-03T15:16:13.058Z,8.27
2019-04-03T15:18:44.735Z,7.93
2019-04-03T15:21:15.839Z,8.03
2019-04-03T15:23:47.488Z,8.67
2019-04-03T15:26:21.830Z,8.00
2019-04-03T15:28:56.829Z,8.13
2019-04-03T15:31:28.874Z,8.20
2019-04-03T15:34:00.496Z,7.87
2019-04-03T15:36:34.917Z,8.60
2019-04-03T15:39:07.572Z,7.53
2019-04-03T15:41:39.211Z,7.83
2019-04-03T15:44:10.543Z,7.10
2019-04-03T15:46:41.791Z,7.80
2019-04-03T15:49:13.276Z,8.47
2019-04-03T15:51:44.726Z,8.17
2019-04-03T15:54:16.229Z,7.93
2019-04-03T15:56:47.530Z,7.97
2019-04-03T15:59:18.639Z,8.80
2019-04-03T16:01:50.145Z,8.20
2019-04-03T16:04:21.707Z,8.57
2019-04-03T16:06:53.331Z,7.87
2019-04-03T16:09:24.733Z,9.03
2019-04-03T16:11:56.208Z,8.20
2019-04-03T16:14:28.545Z,8.90
2019-04-03T16:17:02.943Z,9.87
2019-04-03T16:19:35.223Z,8.73
2019-04-03T16:22:07.005Z,8.67
2019-04-03T16:24:38.297Z,8.37
2019-04-03T16:27:09.444Z,7.73
2019-04-03T16:29:41.328Z,8.33
2019-04-03T16:32:12.945Z,8.80
2019-04-03T16:34:44.246Z,7.53
2019-04-03T16:37:15.680Z,9.17
2019-04-03T16:39:47.347Z,8.13
2019-04-03T16:42:19.091Z,8.77
2019-04-03T16:44:50.722Z,8.70
2019-04-03T16:47:22.029Z,9.13
2019-04-03T16:49:54.867Z,9.10
2019-04-03T16:52:26.669Z,8.33
2019-04-03T16:54:58.408Z,9.23
2019-04-03T16:57:29.790Z,9.50
2019-04-03T17:00:00.960Z,8.40
2019-04-03T17:02:32.235Z,8.17
2019-04-03T17:05:03.502Z,8.90
2019-04-03T17:07:37.447Z,9.07
2019-04-03T17:10:09.994Z,8.37
2019-04-03T17:12:41.390Z,8.40
2019-04-03T17:15:13.034Z,8.60
2019-04-03T17:17:46.217Z,8.83
2019-04-03T17:20:20.334Z,9.00
2019-04-03T17:22:51.467Z,8.87
2019-04-03T17:25:23.255Z,8.77
2019-04-03T17:27:57.810Z,8.27
2019-04-03T17:30:27.558Z,7.83
2019-04-03T17:33:00.399Z,8.20
2019-04-03T17:35:31.606Z,7.77
2019-04-03T17:38:03.161Z,8.30
2019-04-03T17:40:36.378Z,8.10
2019-04-03T17:43:07.523Z,8.30
2019-04-03T17:45:46.506Z,9.07
2019-04-03T17:48:19.537Z,8.18
2019-04-03T17:50:51.110Z,8.50
2019-04-03T17:53:22.265Z,8.00
2019-04-03T17:55:53.907Z,8.35
2019-04-03T17:58:25.604Z,7.70
2019-04-03T18:00:57.074Z,8.28
2019-04-03T18:03:28.367Z,8.60
2019-04-03T18:05:59.537Z,8.77
2019-04-03T18:08:32.593Z,9.27
2019-04-03T18:11:28.536Z,9.73
2019-04-03T18:14:01.502Z,9.43
2019-04-03T18:16:32.920Z,9.00
2019-04-03T18:19:05.415Z,9.63
2019-04-03T18:21:37.041Z,9.48
2019-04-03T18:24:08.632Z,8.40
2019-04-03T18:26:40.135Z,8.88
2019-04-03T18:29:11.680Z,8.90
2019-04-03T18:31:44.703Z,9.48
2019-04-03T18:34:16.291Z,8.90
2019-04-03T18:36:48.182Z,9.15
2019-04-03T18:39:19.700Z,9.10
2019-04-03T18:41:51.335Z,9.15
2019-04-03T18:44:26.056Z,8.60
2019-04-03T18:46:56.474Z,9.15
2019-04-03T18:49:28.107Z,9.40
2019-04-03T18:51:59.872Z,9.28
2019-04-03T18:54:31.456Z,9.25
2019-04-03T18:57:02.936Z,8.88
2019-04-03T18:59:34.479Z,8.53
2019-04-03T19:02:06.226Z,7.87
2019-04-03T19:04:38.303Z,7.90
2019-04-03T19:07:09.852Z,8.80
2019-04-03T19:09:41.297Z,6.35
2019-04-03T19:12:13.504Z,6.80
2019-04-03T19:14:44.920Z,6.40
2019-04-03T19:17:16.590Z,11.15
2019-04-03T19:19:48.264Z,7.65
2019-04-03T19:22:19.671Z,7.12
2019-04-03T19:24:51.496Z,6.90
2019-04-03T19:27:22.945Z,7.97
2019-04-03T19:29:54.687Z,8.60
2019-04-03T19:32:26.121Z,8.00
2019-04-03T19:34:57.737Z,9.10
2019-04-03T19:37:29.281Z,8.75
2019-04-03T19:40:01.555Z,8.18
2019-04-03T19:42:34.866Z,8.33
2019-04-03T19:45:07.519Z,7.72
2019-04-03T19:47:39.243Z,7.62
2019-04-03T19:50:10.992Z,7.20
2019-04-03T19:52:42.743Z,8.15
2019-04-03T19:55:14.341Z,7.33
2019-04-03T19:57:45.794Z,7.45
2019-04-03T20:00:17.401Z,6.62
2019-04-03T20:02:48.931Z,7.62
2019-04-03T20:05:20.314Z,8.25
2019-04-03T20:07:51.891Z,6.78
2019-04-03T20:10:23.322Z,8.18
2019-04-03T20:12:54.869Z,7.83
2019-04-03T20:15:26.074Z,8.25
2019-04-03T20:17:57.478Z,8.40
2019-04-03T20:20:31.464Z,7.85
2019-04-03T20:23:02.438Z,7.22
2019-04-03T20:25:33.968Z,5.33
2019-04-03T20:28:05.714Z,6.87
2019-04-03T20:30:37.551Z,7.15
2019-04-03T20:33:11.425Z,6.85
2019-04-03T20:35:42.583Z,7.45
2019-04-03T20:38:14.353Z,6.90
2019-04-03T20:40:45.930Z,6.83
2019-04-03T20:43:17.353Z,6.58
2019-04-03T20:45:49.773Z,6.58
2019-04-03T20:48:21.895Z,5.97
2019-04-03T20:50:53.514Z,6.25
2019-04-03T20:53:25.112Z,5.92
2019-04-03T20:55:58.135Z,5.95
2019-04-03T20:58:30.303Z,5.45
2019-04-03T21:01:06.856Z,5.83
2019-04-03T21:03:36.091Z,6.20
2019-04-03T21:06:07.524Z,6.78
2019-04-03T21:08:39.334Z,6.80
2019-04-03T21:11:11.790Z,6.00
2019-04-03T21:13:43.303Z,6.03
2019-04-03T21:16:16.654Z,6.00
2019-04-03T21:18:51.150Z,6.03
2019-04-03T21:21:21.594Z,6.30
2019-04-03T21:23:52.978Z,5.40
2019-04-03T21:26:24.396Z,5.60
2019-04-03T21:28:56.106Z,5.28
2019-04-03T21:31:27.800Z,4.83
2019-04-03T21:34:01.619Z,4.72
2019-04-03T21:36:32.853Z,4.40
2019-04-03T21:39:06.239Z,4.10
2019-04-03T21:41:37.817Z,4.30
2019-04-03T21:44:09.399Z,4.35
2019-04-03T21:46:41.000Z,4.10
2019-04-03T21:49:12.427Z,4.42
2019-04-03T21:51:43.659Z,3.98
2019-04-03T21:54:14.891Z,3.92
2019-04-03T21:56:46.182Z,3.55
2019-04-03T21:59:17.522Z,4.08
2019-04-03T22:01:49.041Z,3.70
2019-04-03T22:04:20.940Z,4.10
2019-04-03T22:06:53.499Z,3.92
2019-04-03T22:09:24.855Z,3.83
2019-04-03T22:11:56.180Z,3.50
2019-04-03T22:14:27.682Z,3.08
2019-04-03T22:17:00.470Z,2.92
2019-04-03T22:19:31.921Z,3.70
2019-04-03T22:22:03.643Z,3.62
2019-04-03T22:24:37.760Z,3.00
2019-04-03T22:27:11.309Z,3.50
2019-04-03T22:29:42.988Z,3.10
2019-04-03T22:32:14.525Z,3.17
2019-04-03T22:34:46.323Z,3.37
2019-04-03T22:37:18.001Z,3.40
2019-04-03T22:39:50.500Z,3.25
2019-04-03T22:42:22.146Z,3.30
2019-04-03T22:44:53.665Z,3.10
2019-04-03T22:47:25.718Z,3.33
2019-04-03T22:49:57.403Z,4.08
2019-04-03T22:52:28.840Z,3.40
2019-04-03T22:55:00.393Z,3.17
2019-04-03T22:57:31.794Z,3.15
2019-04-03T23:00:03.528Z,2.98
2019-04-03T23:02:36.935Z,3.17
2019-04-03T23:05:08.467Z,2.92
2019-04-03T23:07:40.028Z,2.70
2019-04-03T23:10:11.567Z,2.90
2019-04-03T23:12:43.106Z,2.77
2019-04-03T23:15:14.746Z,2.75
2019-04-03T23:17:46.072Z,3.00
2019-04-03T23:20:17.784Z,3.17
2019-04-03T23:22:49.358Z,3.00
2019-04-03T23:25:20.853Z,2.52
2019-04-03T23:27:52.566Z,2.90
2019-04-03T23:30:24.197Z,2.77
2019-04-03T23:32:55.851Z,3.27
2019-04-03T23:35:27.334Z,3.05
2019-04-03T23:37:58.921Z,2.95
2019-04-03T23:40:30.529Z,2.72
2019-04-03T23:43:02.076Z,2.62
2019-04-03T23:45:33.635Z,2.62
2019-04-03T23:48:05.336Z,2.85
2019-04-03T23:50:36.986Z,2.55
2019-04-03T23:53:08.590Z,2.80
2019-04-03T23:55:40.214Z,2.85
2019-04-03T23:58:11.634Z,2.62
